TimeEST,TemperatureF,Dew PointF,Humidity,Sea Level PressureIn,VisibilityMPH,Wind Direction,Wind SpeedMPH,Gust SpeedMPH,PrecipitationIn,Events,Conditions,WindDirDegrees,DateUTC
12:29 AM,44.6,39.2,81,30.17,10.0,South,4.6,-,N/A,,Overcast,190,2013-02-11 05:29:00
12:54 AM,44.1,39.9,85,30.16,10.0,Calm,Calm,-,N/A,,Overcast,0,2013-02-11 05:54:00
1:23 AM,42.8,39.2,87,30.16,10.0,West,3.5,-,N/A,,Overcast,280,2013-02-11 06:23:00
1:54 AM,43.0,39.0,86,30.15,10.0,Calm,Calm,-,N/A,,Overcast,0,2013-02-11 06:54:00
2:54 AM,43.0,37.9,82,30.13,10.0,Calm,Calm,-,N/A,,Overcast,0,2013-02-11 07:54:00
3:54 AM,42.1,39.0,89,30.10,3.0,Calm,Calm,-,0.00,Rain,Light Rain,0,2013-02-11 08:54:00
4:54 AM,41.0,39.0,93,30.10,6.0,NNW,4.6,-,0.01,,Overcast,340,2013-02-11 09:54:00
5:54 AM,41.0,39.9,96,30.10,5.0,Calm,Calm,-,0.02,,Overcast,0,2013-02-11 10:54:00
6:20 AM,42.8,39.2,87,30.10,2.0,Calm,Calm,-,0.00,Rain,Light Rain,0,2013-02-11 11:20:00
6:47 AM,42.8,41.0,93,30.10,1.8,Calm,Calm,-,0.01,Rain,Light Rain,0,2013-02-11 11:47:00
6:54 AM,42.1,41.0,96,30.10,2.0,Calm,Calm,-,0.02,,Overcast,0,2013-02-11 11:54:00
7:03 AM,42.8,41.0,93,30.08,1.8,Calm,Calm,-,N/A,,Overcast,0,2013-02-11 12:03:00
7:06 AM,42.8,41.0,93,30.07,2.0,SSE,3.5,-,N/A,,Overcast,150,2013-02-11 12:06:00
7:16 AM,42.8,41.0,93,30.06,1.2,SSE,4.6,-,N/A,,Overcast,160,2013-02-11 12:16:00
7:39 AM,42.8,41.0,93,30.05,1.2,Calm,Calm,-,N/A,,Overcast,0,2013-02-11 12:39:00
7:54 AM,42.1,41.0,96,30.06,1.5,Calm,Calm,-,N/A,,Overcast,0,2013-02-11 12:54:00
8:06 AM,42.8,41.0,93,30.06,2.5,Calm,Calm,-,N/A,,Overcast,0,2013-02-11 13:06:00
8:22 AM,42.8,41.0,93,30.07,2.5,Calm,Calm,-,N/A,,Overcast,0,2013-02-11 13:22:00
8:33 AM,42.8,42.8,100,30.07,2.5,North,3.5,-,N/A,,Overcast,350,2013-02-11 13:33:00
8:51 AM,44.6,42.8,93,30.07,2.5,Calm,Calm,-,N/A,,Overcast,0,2013-02-11 13:51:00
8:54 AM,44.1,42.1,93,30.08,2.5,Calm,Calm,-,N/A,,Overcast,0,2013-02-11 13:54:00
9:25 AM,44.6,42.8,93,30.07,1.8,SW,3.5,-,N/A,,Overcast,230,2013-02-11 14:25:00
9:54 AM,45.0,43.0,93,30.07,1.0,SW,3.5,-,N/A,,Overcast,230,2013-02-11 14:54:00
10:03 AM,44.6,44.6,100,30.06,0.8,Calm,Calm,-,N/A,,Overcast,0,2013-02-11 15:03:00
10:14 AM,44.6,44.6,100,30.05,1.0,Calm,Calm,-,N/A,,Overcast,0,2013-02-11 15:14:00
10:54 AM,46.9,46.0,97,30.05,1.0,Calm,Calm,-,N/A,,Overcast,0,2013-02-11 15:54:00
11:22 AM,48.2,46.4,93,30.03,0.5,West,4.6,-,N/A,Fog,Fog,270,2013-02-11 16:22:00
11:54 AM,48.0,46.9,96,30.03,0.8,Calm,Calm,-,N/A,,Overcast,0,2013-02-11 16:54:00
12:49 PM,50.0,48.2,94,30.01,1.0,SSW,6.9,-,N/A,,Overcast,210,2013-02-11 17:49:00
12:54 PM,50.0,48.9,96,30.01,1.0,SW,5.8,-,N/A,,Overcast,220,2013-02-11 17:54:00
1:20 PM,51.8,51.8,100,29.96,2.5,SSW,8.1,-,N/A,,Overcast,200,2013-02-11 18:20:00
1:43 PM,53.6,51.8,94,29.96,4.0,SW,10.4,16.1,N/A,,Overcast,220,2013-02-11 18:43:00
1:54 PM,53.1,51.1,93,29.97,5.0,SW,6.9,17.3,N/A,,Overcast,230,2013-02-11 18:54:00
2:54 PM,54.0,53.1,97,29.97,2.0,WSW,4.6,-,N/A,,Overcast,250,2013-02-11 19:54:00
3:33 PM,53.6,53.6,100,29.95,3.0,SW,5.8,-,N/A,,Overcast,230,2013-02-11 20:33:00
3:54 PM,55.0,54.0,96,29.95,5.0,SW,5.8,-,N/A,,Overcast,230,2013-02-11 20:54:00
4:36 PM,55.4,53.6,94,29.95,10.0,Variable,6.9,-,N/A,,Overcast,0,2013-02-11 21:36:00
4:54 PM,57.0,54.0,89,29.95,10.0,SW,8.1,-,N/A,,Overcast,230,2013-02-11 21:54:00
5:54 PM,57.0,54.0,89,29.95,10.0,SW,4.6,-,N/A,,Overcast,220,2013-02-11 22:54:00
6:54 PM,55.9,54.0,93,29.96,10.0,SW,8.1,-,N/A,,Overcast,220,2013-02-11 23:54:00
7:54 PM,55.9,54.0,93,29.97,10.0,SW,6.9,16.1,N/A,,Overcast,220,2013-02-12 00:54:00
8:54 PM,55.0,53.1,93,29.96,10.0,SW,6.9,-,N/A,,Mostly Cloudy,230,2013-02-12 01:54:00
9:07 PM,55.4,53.6,94,29.96,10.0,SW,5.8,-,N/A,,Partly Cloudy,230,2013-02-12 02:07:00
9:54 PM,54.0,52.0,93,29.97,10.0,WSW,5.8,-,N/A,,Clear,240,2013-02-12 02:54:00
10:54 PM,53.1,50.0,89,29.97,10.0,West,6.9,-,N/A,,Clear,260,2013-02-12 03:54:00
11:54 PM,52.0,48.9,89,29.97,10.0,WSW,3.5,-,N/A,,Clear,240,2013-02-12 04:54:00